Time;durP1;ratioP1;P1;durP2;ratioP2;P2;SDS_P1;SDS_P2;PMS_P1;PMS_P2;Temp;Humidity;BMP_temperature;BMP_pressure;BME280_temperature;BME280_humidity;BME280_pressure;Samples;Min_cycle;Max_cycle;Signal;HPM_P1;HPM_P2
2023/11/16 00:00:15;;;;;;;1999.90;999.90;;;;;;;14.89;65.90;101371.94;10421522;28;20053;-65
2023/11/16 00:05:18;;;;;;;1999.90;999.90;;;;;;;14.42;67.29;101388.06;10422078;28;20049;-65
2023/11/16 00:10:20;;;;;;;1999.90;999.90;;;;;;;14.84;66.93;101377.50;10421856;28;20053;-65
2023/11/16 00:15:23;;;;;;;1999.90;999.90;;;;;;;14.88;67.17;101388.69;10421648;28;20052;-65
2023/11/16 00:20:26;;;;;;;1999.90;999.90;;;;;;;15.02;66.42;101399.16;10421483;28;20523;-65
2023/11/16 00:25:28;;;;;;;1999.90;999.90;;;;;;;14.95;66.20;101390.81;10421396;28;20041;-65
2023/11/16 00:30:31;;;;;;;1999.90;999.90;;;;;;;15.17;65.49;101389.38;10421127;28;20128;-65
2023/11/16 00:35:33;;;;;;;1999.90;999.90;;;;;;;14.58;66.42;101397.63;10403921;28;20077;-65
2023/11/16 00:40:35;;;;;;;1999.90;999.90;;;;;;;14.99;65.50;101389.66;10403244;28;20053;-65
2023/11/16 00:45:38;;;;;;;1999.90;999.90;;;;;;;14.81;66.21;101388.25;10419600;28;20045;-65
2023/11/16 00:50:40;;;;;;;1999.90;999.90;;;;;;;14.15;65.70;101390.66;10419630;28;20061;-65
2023/11/16 00:55:43;;;;;;;1999.90;999.90;;;;;;;15.15;64.03;101383.38;10420414;28;20045;-65
2023/11/16 01:00:49;;;;;;;1999.90;999.90;;;;;;;15.27;64.46;101384.34;10419986;28;20520;-65
2023/11/16 01:05:51;;;;;;;1999.90;999.90;;;;;;;14.83;65.54;101394.28;10419772;28;20389;-65
2023/11/16 01:10:54;;;;;;;1999.90;999.90;;;;;;;14.80;64.97;101397.94;10420226;28;20064;-65
2023/11/16 01:15:58;;;;;;;1999.90;999.90;;;;;;;14.94;65.96;101401.47;10419309;28;20046;-65
2023/11/16 01:21:00;;;;;;;1999.90;999.90;;;;;;;15.48;63.24;101390.75;10419421;28;20050;-65
2023/11/16 01:26:04;;;;;;;1999.90;999.90;;;;;;;14.12;66.43;101398.75;10419039;28;20073;-65
2023/11/16 01:31:07;;;;;;;1999.90;999.90;;;;;;;14.67;66.40;101391.78;10419188;28;20563;-65
2023/11/16 01:36:10;;;;;;;1999.90;999.90;;;;;;;14.77;64.86;101408.69;10418394;28;20096;-65
2023/11/16 01:41:14;;;;;;;1999.90;999.90;;;;;;;14.52;67.42;101404.13;10418355;28;20052;-65
2023/11/16 01:46:17;;;;;;;1999.90;999.90;;;;;;;15.51;64.63;101403.75;10418018;28;20053;-65
2023/11/16 01:51:20;;;;;;;1999.90;999.90;;;;;;;14.53;65.90;101413.75;10418090;28;20061;-65
2023/11/16 01:56:23;;;;;;;1999.90;999.90;;;;;;;15.10;66.19;101411.84;10400397;28;20083;-65
2023/11/16 02:01:27;;;;;;;1999.90;999.90;;;;;;;15.48;64.12;101419.78;10415840;28;20133;-65
2023/11/16 02:06:30;;;;;;;1999.90;999.90;;;;;;;14.88;66.69;101418.53;10416237;28;20052;-65
2023/11/16 02:11:32;;;;;;;1999.90;999.90;;;;;;;14.78;67.16;101439.38;10416668;28;20057;-65
2023/11/16 02:16:36;;;;;;;1999.90;999.90;;;;;;;15.30;65.96;101421.03;10417028;28;20045;-65
2023/11/16 02:21:41;;;;;;;1999.90;999.90;;;;;;;14.59;70.54;101430.97;10416812;28;20412;-65
2023/11/16 02:26:43;;;;;;;1999.90;999.90;;;;;;;14.29;70.77;101430.16;10416810;28;20068;-65
2023/11/16 02:31:46;;;;;;;1999.90;999.90;;;;;;;14.94;69.43;101443.66;10416728;28;20140;-65
2023/11/16 02:36:48;;;;;;;1999.90;999.90;;;;;;;15.51;67.37;101443.34;10416292;28;20050;-65
2023/11/16 02:41:51;;;;;;;1999.90;999.90;;;;;;;14.86;69.90;101442.38;10414942;28;20099;-65
2023/11/16 02:46:55;;;;;;;1999.90;999.90;;;;;;;15.20;68.49;101434.88;10416099;28;20084;-65
2023/11/16 02:52:01;;;;;;;1999.90;999.90;;;;;;;15.30;68.05;101429.81;10415545;28;20083;-65
2023/11/16 02:57:04;;;;;;;1999.90;999.90;;;;;;;15.14;69.50;101429.16;10415536;28;20448;-65
2023/11/16 03:02:07;;;;;;;1999.90;999.90;;;;;;;15.53;68.58;101432.69;10415581;28;20107;-65
2023/11/16 03:07:10;;;;;;;1999.90;999.90;;;;;;;15.19;68.85;101427.88;10415557;28;20128;-65
2023/11/16 03:12:31;;;;;;;1999.90;999.90;;;;;;;14.15;73.10;101431.97;10414270;28;20056;-65
2023/11/16 03:17:34;;;;;;;1999.90;999.90;;;;;;;14.31;72.02;101425.63;10414569;28;20053;-65
2023/11/16 03:22:37;;;;;;;1999.90;999.90;;;;;;;13.98;74.50;101419.84;10414011;28;20053;-65
2023/11/16 03:27:42;;;;;;;1999.90;999.90;;;;;;;14.00;76.57;101410.91;10414793;28;20052;-65
2023/11/16 03:32:45;;;;;;;1999.90;999.90;;;;;;;14.46;73.39;101417.72;10397457;28;20564;-65
2023/11/16 03:37:48;;;;;;;1999.90;999.90;;;;;;;14.54;72.47;101415.44;10414727;28;20041;-65
2023/11/16 03:42:50;;;;;;;1999.90;999.90;;;;;;;14.24;74.93;101426.09;10414621;28;20400;-65
2023/11/16 03:47:52;;;;;;;1999.90;999.90;;;;;;;14.15;74.91;101419.63;10414741;28;20060;-65
2023/11/16 03:52:55;;;;;;;1999.90;999.90;;;;;;;14.44;73.19;101414.31;10414664;28;20057;-65
2023/11/16 03:57:57;;;;;;;1999.90;999.90;;;;;;;14.27;73.74;101410.13;10414589;28;20045;-65
2023/11/16 04:03:00;;;;;;;1999.90;999.90;;;;;;;14.56;72.94;101394.22;10413615;28;20064;-65
2023/11/16 04:08:06;;;;;;;1999.90;999.90;;;;;;;14.30;73.55;101402.88;10413251;28;20053;-65
2023/11/16 04:13:09;;;;;;;1999.90;999.90;;;;;;;14.86;72.22;101405.47;10412907;28;20485;-65
2023/11/16 04:18:11;;;;;;;1999.90;999.90;;;;;;;14.75;70.81;101393.94;10414245;28;20133;-65
2023/11/16 04:23:13;;;;;;;1999.90;999.90;;;;;;;14.46;72.04;101401.91;10414113;28;20053;-65
2023/11/16 04:28:19;;;;;;;1999.90;999.90;;;;;;;14.56;71.98;101402.13;10419301;28;20220;-65
2023/11/16 04:33:21;;;;;;;1999.90;999.90;;;;;;;14.37;72.84;101405.13;10421308;28;20072;-65
2023/11/16 04:38:27;;;;;;;1999.90;999.90;;;;;;;14.59;72.29;101399.34;10403341;28;20188;-65
2023/11/16 04:43:30;;;;;;;1999.90;999.90;;;;;;;13.78;75.00;101403.50;10421003;28;20054;-65
2023/11/16 04:48:33;;;;;;;1999.90;999.90;;;;;;;14.30;71.90;101412.56;10420974;28;20374;-65
2023/11/16 04:53:36;;;;;;;1999.90;999.90;;;;;;;14.38;71.80;101404.19;10420620;28;20057;-65
2023/11/16 04:58:42;;;;;;;1999.90;999.90;;;;;;;14.12;73.78;101410.16;10419031;28;20041;-65
2023/11/16 05:03:45;;;;;;;1999.90;999.90;;;;;;;13.07;75.53;101409.47;10419244;28;20489;-65
2023/11/16 05:08:47;;;;;;;1999.90;999.90;;;;;;;14.30;72.64;101408.13;10419846;28;20045;-65
2023/11/16 05:13:50;;;;;;;1999.90;999.90;;;;;;;13.86;72.29;101395.97;10419516;28;20476;-65
2023/11/16 05:18:53;;;;;;;1999.90;999.90;;;;;;;13.79;73.91;101385.94;10418060;28;20056;-65
2023/11/16 05:23:56;;;;;;;1999.90;999.90;;;;;;;13.84;73.54;101392.59;10419073;28;20058;-65
2023/11/16 05:28:59;;;;;;;1999.90;999.90;;;;;;;13.92;73.63;101403.50;10418933;28;20049;-65
2023/11/16 05:34:02;;;;;;;1999.90;999.90;;;;;;;14.20;71.00;101396.50;10418814;28;20079;-65
2023/11/16 05:39:05;;;;;;;1999.90;999.90;;;;;;;14.42;71.48;101397.75;10418380;28;20049;-65
2023/11/16 05:44:07;;;;;;;1999.90;999.90;;;;;;;13.76;74.63;101386.94;10418592;28;20049;-65
2023/11/16 05:49:10;;;;;;;1999.90;999.90;;;;;;;14.44;71.47;101378.28;10417077;28;20053;-65
2023/11/16 05:54:14;;;;;;;1999.90;999.90;;;;;;;14.09;72.42;101383.19;10416686;28;20055;-65
2023/11/16 05:59:16;;;;;;;1999.90;999.90;;;;;;;14.05;71.31;101384.28;10417679;28;20140;-65
2023/11/16 06:04:22;;;;;;;1999.90;999.90;;;;;;;14.01;73.00;101391.53;10417644;28;20067;-65
2023/11/16 06:09:25;;;;;;;1999.90;999.90;;;;;;;14.47;70.06;101383.38;10416398;28;20129;-65
2023/11/16 06:14:31;;;;;;;1999.90;999.90;;;;;;;14.09;72.08;101378.75;10416022;28;20400;-65
2023/11/16 06:19:47;;;;;;;1999.90;999.90;;;;;;;14.47;71.52;101386.00;10417055;28;20081;-65
2023/11/16 06:24:50;;;;;;;1999.90;999.90;;;;;;;14.36;71.19;101379.75;10416739;28;20415;-65
2023/11/16 06:29:52;;;;;;;1999.90;999.90;;;;;;;13.75;72.85;101378.22;10415600;28;20084;-65
2023/11/16 06:34:55;;;;;;;1999.90;999.90;;;;;;;14.78;69.64;101354.19;10416489;28;20054;-65
2023/11/16 06:39:57;;;;;;;1999.90;999.90;;;;;;;13.99;71.33;101363.63;10398607;28;20052;-65
2023/11/16 06:45:01;;;;;;;1999.90;999.90;;;;;;;15.21;68.86;101348.66;10416074;28;20424;-65
2023/11/16 06:50:04;;;;;;;1999.90;999.90;;;;;;;13.92;73.22;101355.28;10415367;28;20056;-65
2023/11/16 06:55:10;;;;;;;1999.90;999.90;;;;;;;14.42;70.02;101355.63;10414433;28;20092;-65
2023/11/16 07:00:19;;;;;;;1999.90;999.90;;;;;;;14.44;69.90;101353.72;10415627;28;20052;-65
2023/11/16 07:05:23;;;;;;;1999.90;999.90;;;;;;;14.48;69.85;101350.78;10429766;22;20049;-73
2023/11/16 07:10:26;;;;;;;1999.90;999.90;;;;;;;15.17;66.64;101336.63;10374927;28;20133;-72
2023/11/16 07:15:28;;;;;;;1999.90;999.90;;;;;;;14.47;68.25;101327.19;10357052;28;20050;-72
2023/11/16 07:20:31;;;;;;;1999.90;999.90;;;;;;;15.49;65.97;101323.03;10373190;28;20046;-72
2023/11/16 07:25:33;;;;;;;1999.90;999.90;;;;;;;15.66;65.01;101309.47;10374150;28;20052;-72
2023/11/16 07:30:36;;;;;;;1999.90;999.90;;;;;;;15.52;65.19;101305.19;10374165;28;20156;-72
2023/11/16 07:35:38;;;;;;;1999.90;999.90;;;;;;;15.34;65.31;101295.91;10372793;28;20053;-72
2023/11/16 07:40:43;;;;;;;1999.90;999.90;;;;;;;15.04;66.90;101297.91;10374189;28;20054;-72
2023/11/16 07:45:46;;;;;;;1999.90;999.90;;;;;;;15.44;65.98;101301.41;10374512;28;20058;-72
2023/11/16 07:50:48;;;;;;;1999.90;999.90;;;;;;;15.40;67.33;101306.03;10373259;28;20046;-72
2023/11/16 07:55:53;;;;;;;1999.90;999.90;;;;;;;14.68;68.37;101309.16;10373681;28;20056;-72
2023/11/16 08:00:55;;;;;;;1999.90;999.90;;;;;;;14.86;68.56;101307.06;10374469;28;20459;-72
2023/11/16 08:05:58;;;;;;;1999.90;999.90;;;;;;;15.83;65.49;101307.47;10381267;28;20120;-72
2023/11/16 08:11:06;;;;;;;1999.90;999.90;;;;;;;15.43;65.83;101295.25;10380083;28;20050;-72
2023/11/16 08:16:10;;;;;;;1999.90;999.90;;;;;;;15.49;67.01;101300.09;10381394;28;20466;-72
2023/11/16 08:21:12;;;;;;;1999.90;999.90;;;;;;;15.80;66.44;101284.75;10379733;28;20056;-72
2023/11/16 08:26:17;;;;;;;1999.90;999.90;;;;;;;16.09;64.40;101284.47;10380793;28;20126;-72
2023/11/16 08:31:20;;;;;;;1999.90;999.90;;;;;;;15.17;68.36;101268.91;10379503;28;20050;-72
2023/11/16 08:36:24;;;;;;;1999.90;999.90;;;;;;;15.79;66.20;101254.88;10379475;28;20058;-72
2023/11/16 08:41:28;;;;;;;1999.90;999.90;;;;;;;15.66;65.77;101256.69;10380062;28;20054;-72
2023/11/16 08:46:31;;;;;;;1999.90;999.90;;;;;;;15.22;67.94;101250.97;10362376;28;20061;-72
2023/11/16 08:51:34;;;;;;;1999.90;999.90;;;;;;;15.66;66.22;101266.41;10379902;28;20053;-72
2023/11/16 08:56:36;;;;;;;1999.90;999.90;;;;;;;16.37;63.77;101263.94;10362007;28;20053;-72
2023/11/16 09:01:44;;;;;;;1999.90;999.90;;;;;;;15.28;66.89;101257.63;10378244;28;20570;-72
2023/11/16 09:06:46;;;;;;;1999.90;999.90;;;;;;;15.58;66.33;101249.34;10378132;28;20049;-72
2023/11/16 09:11:49;;;;;;;1999.90;999.90;;;;;;;15.74;66.87;101242.94;10378571;28;20161;-72
2023/11/16 09:17:00;;;;;;;1999.90;999.90;;;;;;;15.84;64.89;101246.63;10378981;28;20570;-72
2023/11/16 09:22:14;;;;;;;1999.90;999.90;;;;;;;15.12;67.31;101260.47;10364370;28;20093;-72
2023/11/16 09:27:17;;;;;;;1999.90;999.90;;;;;;;15.41;65.94;101263.69;10377177;28;20125;-72
2023/11/16 09:32:21;;;;;;;1999.90;999.90;;;;;;;15.53;66.23;101258.50;10377971;28;20081;-72
2023/11/16 09:37:26;;;;;;;1999.90;999.90;;;;;;;14.63;66.95;101266.47;10377893;28;20046;-72
2023/11/16 09:42:31;;;;;;;1999.90;999.90;;;;;;;15.67;65.89;101252.25;10377588;28;20456;-72
2023/11/16 09:47:42;;;;;;;1999.90;999.90;;;;;;;15.85;65.93;101242.19;10377042;28;20050;-72
2023/11/16 09:52:44;;;;;;;1999.90;999.90;;;;;;;15.59;65.27;101240.44;10376362;28;20089;-72
2023/11/16 09:57:49;;;;;;;1999.90;999.90;;;;;;;15.95;64.98;101232.63;10359684;28;20553;-72
2023/11/16 10:02:57;;;;;;;1999.90;999.90;;;;;;;16.13;63.55;101225.16;10376110;28;20052;-72
2023/11/16 10:08:01;;;;;;;1999.90;999.90;;;;;;;15.23;66.18;101235.97;10375575;28;20104;-72
2023/11/16 10:13:04;;;;;;;1999.90;999.90;;;;;;;15.86;65.90;101225.41;10376008;28;20056;-72
2023/11/16 10:18:09;;;;;;;1999.90;999.90;;;;;;;15.88;64.33;101218.22;10376194;28;20396;-72
2023/11/16 10:23:12;;;;;;;1999.90;999.90;;;;;;;15.40;66.21;101221.63;10375584;28;20142;-72
2023/11/16 10:28:19;;;;;;;1999.90;999.90;;;;;;;15.23;67.43;101209.59;10375904;28;20049;-72
2023/11/16 10:33:23;;;;;;;1999.90;999.90;;;;;;;15.41;66.33;101196.91;10375720;28;20099;-72
2023/11/16 10:38:32;;;;;;;1999.90;999.90;;;;;;;15.50;65.44;101201.53;10358290;28;20053;-72
2023/11/16 10:43:35;;;;;;;1999.90;999.90;;;;;;;15.75;65.28;101197.09;10374353;28;20076;-72
2023/11/16 10:48:38;;;;;;;1999.90;999.90;;;;;;;15.39;66.34;101189.09;10358055;28;20153;-72
2023/11/16 10:53:42;;;;;;;1999.90;999.90;;;;;;;15.17;67.14;101173.94;10375139;28;20050;-72
2023/11/16 10:58:47;;;;;;;1999.90;999.90;;;;;;;15.64;66.30;101163.59;10375095;28;20134;-72
2023/11/16 11:03:50;;;;;;;1999.90;999.90;;;;;;;15.85;66.82;101147.97;10374867;28;20129;-72
2023/11/16 11:08:57;;;;;;;1999.90;999.90;;;;;;;15.66;65.69;101142.34;10374697;28;20050;-72
2023/11/16 11:14:05;;;;;;;1999.90;999.90;;;;;;;15.95;65.95;101137.56;10373629;28;20049;-72
2023/11/16 11:19:09;;;;;;;1999.90;999.90;;;;;;;16.14;65.57;101137.06;10374465;28;20048;-72
2023/11/16 11:24:13;;;;;;;1999.90;999.90;;;;;;;15.93;66.04;101128.94;10374532;28;20404;-72
2023/11/16 11:29:23;;;;;;;1999.90;999.90;;;;;;;16.02;65.52;101120.34;10374346;28;20129;-72
2023/11/16 11:34:30;;;;;;;1999.90;999.90;;;;;;;14.92;68.27;101105.47;10375043;28;20496;-72
2023/11/16 11:39:38;;;;;;;1999.90;999.90;;;;;;;15.59;66.93;101095.28;10381127;28;20129;-72
2023/11/16 11:44:54;;;;;;;1999.90;999.90;;;;;;;15.77;66.56;101093.13;10382932;28;20050;-72
2023/11/16 11:49:56;;;;;;;1999.90;999.90;;;;;;;16.05;65.43;101090.19;10382052;28;20050;-72
2023/11/16 11:54:59;;;;;;;1999.90;999.90;;;;;;;15.26;68.03;101074.84;10380781;28;20049;-71
2023/11/16 12:00:06;;;;;;;1999.90;999.90;;;;;;;15.97;65.77;101062.59;10364469;28;20060;-71
2023/11/16 12:05:18;;;;;;;1999.90;999.90;;;;;;;15.09;68.96;101054.97;10380298;28;20140;-71
2023/11/16 12:10:23;;;;;;;1999.90;999.90;;;;;;;15.97;65.97;101054.66;10380059;28;20049;-71
2023/11/16 12:15:25;;;;;;;1999.90;999.90;;;;;;;16.03;66.58;101045.41;10380987;28;20050;-71
2023/11/16 12:20:29;;;;;;;1999.90;999.90;;;;;;;15.84;67.18;101031.94;10380727;28;20121;-71
2023/11/16 12:25:34;;;;;;;1999.90;999.90;;;;;;;15.77;68.11;101023.66;10380748;28;20077;-71
2023/11/16 12:30:37;;;;;;;1999.90;999.90;;;;;;;15.87;67.26;101011.44;10380570;28;20046;-72
2023/11/16 12:35:40;;;;;;;1999.90;999.90;;;;;;;15.89;66.77;101000.75;10379024;28;20481;-72
2023/11/16 12:40:42;;;;;;;1999.90;999.90;;;;;;;15.69;67.25;101000.44;10380193;28;20053;-72
2023/11/16 12:45:45;;;;;;;1999.90;999.90;;;;;;;15.48;67.84;100987.03;10379068;28;20544;-72
2023/11/16 12:50:48;;;;;;;1999.90;999.90;;;;;;;15.89;65.42;100977.00;10362305;28;20050;-72
2023/11/16 12:55:51;;;;;;;1999.90;999.90;;;;;;;16.07;66.32;100962.38;10379734;28;20056;-72
2023/11/16 13:00:54;;;;;;;1999.90;999.90;;;;;;;15.66;67.31;100954.97;10378095;28;20052;-72
2023/11/16 13:06:00;;;;;;;1999.90;999.90;;;;;;;15.84;67.05;100953.59;10379238;28;20060;-72
2023/11/16 13:11:03;;;;;;;1999.90;999.90;;;;;;;16.17;65.58;100954.53;10361561;28;20050;-72
2023/11/16 13:16:07;;;;;;;1999.90;999.90;;;;;;;15.81;66.89;100955.63;10378633;28;20408;-72
2023/11/16 13:21:09;;;;;;;1999.90;999.90;;;;;;;14.94;68.22;100953.28;10378553;28;20056;-72
2023/11/16 13:26:14;;;;;;;1999.90;999.90;;;;;;;15.55;66.41;100948.72;10377224;28;20129;-72
2023/11/16 13:31:16;;;;;;;1999.90;999.90;;;;;;;16.15;64.44;100941.47;10378101;28;20452;-72
2023/11/16 13:36:19;;;;;;;1999.90;999.90;;;;;;;16.04;64.61;100943.25;10378752;28;20088;-72
2023/11/16 13:41:22;;;;;;;1999.90;999.90;;;;;;;16.24;63.92;100939.91;10377802;28;20049;-72
2023/11/16 13:46:25;;;;;;;1999.90;999.90;;;;;;;16.39;63.80;100932.56;10376898;28;20046;-72
2023/11/16 13:51:29;;;;;;;1999.90;999.90;;;;;;;15.95;64.70;100942.19;10359964;28;20042;-72
2023/11/16 13:56:31;;;;;;;1999.90;999.90;;;;;;;15.62;65.18;100941.16;10377308;28;20082;-72
2023/11/16 14:01:34;;;;;;;1999.90;999.90;;;;;;;16.39;63.82;100934.34;10374579;28;20054;-72
2023/11/16 14:06:38;;;;;;;1999.90;999.90;;;;;;;15.68;65.06;100945.13;10375987;28;20054;-72
2023/11/16 14:11:40;;;;;;;1999.90;999.90;;;;;;;15.73;65.58;100941.16;10376465;28;20050;-72
2023/11/16 14:16:44;;;;;;;1999.90;999.90;;;;;;;15.81;64.33;100942.44;10376341;28;20054;-72
2023/11/16 14:21:46;;;;;;;1999.90;999.90;;;;;;;15.19;65.48;100954.94;10358759;28;20050;-71
2023/11/16 14:26:49;;;;;;;1999.90;999.90;;;;;;;15.62;65.04;100962.28;10375969;28;20100;-71
2023/11/16 14:31:51;;;;;;;1999.90;999.90;;;;;;;15.61;64.84;100964.06;10376003;28;20072;-72
2023/11/16 14:36:53;;;;;;;1999.90;999.90;;;;;;;15.81;63.62;100968.81;10375599;28;20061;-71
2023/11/16 14:41:56;;;;;;;1999.90;999.90;;;;;;;15.56;65.60;100957.47;10358242;28;20091;-71
2023/11/16 14:46:58;;;;;;;1999.90;999.90;;;;;;;15.22;66.06;100960.00;10375418;28;20049;-71
2023/11/16 14:52:01;;;;;;;1999.90;999.90;;;;;;;15.07;67.01;100966.41;10375150;28;20486;-71
2023/11/16 14:57:04;;;;;;;1999.90;999.90;;;;;;;15.17;65.80;100967.41;10375193;28;20057;-71
2023/11/16 15:02:09;;;;;;;1999.90;999.90;;;;;;;15.58;65.13;100968.72;10374818;28;20049;-71
2023/11/16 15:07:11;;;;;;;1999.90;999.90;;;;;;;15.36;64.11;100975.63;10374742;28;20053;-71
2023/11/16 15:12:13;;;;;;;1999.90;999.90;;;;;;;15.75;64.44;100970.09;10357208;28;20068;-71
2023/11/16 15:17:16;;;;;;;1999.90;999.90;;;;;;;15.52;64.29;100979.78;10357135;28;20149;-71
2023/11/16 15:22:18;;;;;;;1999.90;999.90;;;;;;;15.60;64.30;100975.59;10374426;28;20054;-71
2023/11/16 15:27:21;;;;;;;1999.90;999.90;;;;;;;15.77;63.83;100984.06;10374123;28;20479;-71
2023/11/16 15:32:24;;;;;;;1999.90;999.90;;;;;;;15.46;66.26;100980.22;10374141;28;20529;-70
2023/11/16 15:37:26;;;;;;;1999.90;999.90;;;;;;;15.50;65.65;100979.03;10374649;28;20068;-71
2023/11/16 15:42:31;;;;;;;1999.90;999.90;;;;;;;14.98;67.10;100981.94;10374252;28;20053;-71
2023/11/16 15:47:34;;;;;;;1999.90;999.90;;;;;;;15.05;66.30;100984.97;10374359;28;20050;-71
2023/11/16 15:52:36;;;;;;;1999.90;999.90;;;;;;;15.36;65.77;100986.16;10374130;28;20058;-71
2023/11/16 15:57:39;;;;;;;1999.90;999.90;;;;;;;15.37;65.73;100989.66;10373664;28;20429;-71
2023/11/16 16:02:41;;;;;;;1999.90;999.90;;;;;;;15.17;66.87;100984.06;10372592;28;20049;-71
2023/11/16 16:07:44;;;;;;;1999.90;999.90;;;;;;;15.22;65.74;100981.09;10356106;28;20137;-71
2023/11/16 16:12:46;;;;;;;1999.90;999.90;;;;;;;15.27;65.71;100989.50;10373752;28;20129;-71
2023/11/16 16:17:49;;;;;;;1999.90;999.90;;;;;;;15.24;66.22;100993.19;10373659;28;20092;-71
2023/11/16 16:22:51;;;;;;;1999.90;999.90;;;;;;;15.43;64.36;100997.09;10377495;28;20050;-71
2023/11/16 16:27:54;;;;;;;1999.90;999.90;;;;;;;15.32;65.70;100997.91;10381224;28;20056;-71
2023/11/16 16:32:56;;;;;;;1999.90;999.90;;;;;;;15.12;66.27;100994.13;10381041;28;20099;-71
2023/11/16 16:37:59;;;;;;;1999.90;999.90;;;;;;;14.86;66.01;100999.50;10380213;28;20045;-71
2023/11/16 16:43:01;;;;;;;1999.90;999.90;;;;;;;14.15;68.88;101000.13;10380594;28;20141;-70
2023/11/16 16:48:04;;;;;;;1999.90;999.90;;;;;;;15.28;65.06;101008.81;10379813;28;20480;-70
2023/11/16 16:53:11;;;;;;;1999.90;999.90;;;;;;;14.50;66.54;101026.63;10379962;28;20119;-70
2023/11/16 16:58:13;;;;;;;1999.90;999.90;;;;;;;14.06;69.34;101033.22;10362231;28;20084;-71
2023/11/16 17:03:15;;;;;;;1999.90;999.90;;;;;;;14.47;67.81;101034.75;10379144;28;20053;-71
2023/11/16 17:08:18;;;;;;;1999.90;999.90;;;;;;;14.81;66.56;101037.66;10379001;28;20489;-71
2023/11/16 17:13:20;;;;;;;1999.90;999.90;;;;;;;14.92;66.22;101048.28;10378929;28;20046;-71
2023/11/16 17:18:23;;;;;;;1999.90;999.90;;;;;;;14.14;68.12;101051.97;10379439;28;20046;-71
2023/11/16 17:23:25;;;;;;;1999.90;999.90;;;;;;;14.50;66.97;101051.19;10378464;28;20401;-71
2023/11/16 17:28:29;;;;;;;1999.90;999.90;;;;;;;14.93;65.39;101050.00;10378441;28;20072;-71
2023/11/16 17:33:34;;;;;;;1999.90;999.90;;;;;;;14.92;66.13;101055.38;10378137;28;20046;-71
2023/11/16 17:38:37;;;;;;;1999.90;999.90;;;;;;;13.96;68.50;101045.31;10376755;28;20046;-71
2023/11/16 17:43:40;;;;;;;1999.90;999.90;;;;;;;14.73;66.46;101053.22;10377583;28;20437;-71
2023/11/16 17:48:43;;;;;;;1999.90;999.90;;;;;;;14.68;65.58;101050.88;10377681;28;20046;-71
2023/11/16 17:53:47;;;;;;;1999.90;999.90;;;;;;;14.84;65.07;101054.13;10377635;28;20054;-71
2023/11/16 17:58:51;;;;;;;1999.90;999.90;;;;;;;14.23;66.65;101056.59;10375816;28;20050;-71
2023/11/16 18:03:53;;;;;;;1999.90;999.90;;;;;;;14.61;65.45;101068.09;10375864;28;20521;-71
2023/11/16 18:08:58;;;;;;;1999.90;999.90;;;;;;;14.45;65.88;101079.63;10376731;28;20058;-71
2023/11/16 18:14:03;;;;;;;1999.90;999.90;;;;;;;13.86;66.86;101076.66;10375878;28;20054;-70
2023/11/16 18:19:09;;;;;;;1999.90;999.90;;;;;;;13.97;66.13;101076.78;10376241;28;20411;-70
2023/11/16 18:24:12;;;;;;;1999.90;999.90;;;;;;;14.20;66.81;101085.75;10375228;28;20517;-70
2023/11/16 18:29:15;;;;;;;1999.90;999.90;;;;;;;14.60;64.84;101075.13;10376460;28;20081;-70
2023/11/16 18:34:39;;;;;;;1999.90;999.90;;;;;;;14.41;64.77;101094.00;10375781;28;20089;-70
2023/11/16 18:39:42;;;;;;;1999.90;999.90;;;;;;;13.81;67.20;101099.81;10374780;28;20129;-70
2023/11/16 18:44:45;;;;;;;1999.90;999.90;;;;;;;14.17;64.50;101107.06;10373749;28;20505;-70
2023/11/16 18:49:47;;;;;;;1999.90;999.90;;;;;;;14.07;65.39;101104.19;10375965;28;20068;-70
2023/11/16 18:54:50;;;;;;;1999.90;999.90;;;;;;;14.63;64.15;101119.72;10375286;28;20421;-70
2023/11/16 18:59:53;;;;;;;1999.90;999.90;;;;;;;14.58;63.21;101126.25;10374401;28;20082;-71
2023/11/16 19:05:00;;;;;;;1999.90;999.90;;;;;;;14.03;65.33;101109.75;10374798;28;20384;-70
2023/11/16 19:10:04;;;;;;;1999.90;999.90;;;;;;;13.87;65.60;101112.53;10375154;28;20061;-71
2023/11/16 19:15:07;;;;;;;1999.90;999.90;;;;;;;13.89;66.22;101111.50;10374613;28;20053;-71
2023/11/16 19:25:14;;;;;;;1999.90;999.90;;;;;;;13.98;64.41;101136.38;10372727;28;20065;-69
2023/11/16 19:30:17;;;;;;;1999.90;999.90;;;;;;;14.21;63.31;101145.38;10374358;28;20046;-69
2023/11/16 19:35:19;;;;;;;1999.90;999.90;;;;;;;14.18;62.71;101158.75;10373024;28;20064;-69
2023/11/16 19:40:23;;;;;;;1999.90;999.90;;;;;;;14.13;62.87;101164.31;10373022;28;20129;-70
2023/11/16 19:45:40;;;;;;;1999.90;999.90;;;;;;;13.51;65.98;101171.91;10373983;28;20054;-69
2023/11/16 19:50:43;;;;;;;1999.90;999.90;;;;;;;13.57;64.21;101169.72;10373216;28;20100;-69
2023/11/16 19:55:46;;;;;;;1999.90;999.90;;;;;;;13.79;65.19;101175.41;10374554;28;20054;-69
2023/11/16 20:00:48;;;;;;;1999.90;999.90;;;;;;;13.96;63.73;101182.19;10380612;28;20049;-70
2023/11/16 20:05:52;;;;;;;1999.90;999.90;;;;;;;13.85;64.21;101180.25;10381651;28;20132;-69
2023/11/16 20:10:55;;;;;;;1999.90;999.90;;;;;;;13.45;65.27;101206.47;10381219;28;20054;-69
2023/11/16 20:15:58;;;;;;;1999.90;999.90;;;;;;;13.84;62.85;101195.19;10380980;28;20082;-69
2023/11/16 20:21:03;;;;;;;1999.90;999.90;;;;;;;13.29;64.40;101204.78;10379757;28;20404;-69
2023/11/16 20:26:05;;;;;;;1999.90;999.90;;;;;;;13.66;63.85;101210.38;10380819;28;20116;-70
2023/11/16 20:31:08;;;;;;;1999.90;999.90;;;;;;;12.94;65.38;101218.28;10380474;28;20052;-70
2023/11/16 20:36:14;;;;;;;1999.90;999.90;;;;;;;13.55;63.85;101218.13;10380494;28;20078;-70
2023/11/16 20:41:16;;;;;;;1999.90;999.90;;;;;;;13.28;64.36;101224.13;10379931;28;20396;-70
2023/11/16 20:46:26;;;;;;;1999.90;999.90;;;;;;;13.19;63.99;101228.16;10378903;28;20046;-70
2023/11/16 20:51:30;;;;;;;1999.90;999.90;;;;;;;13.02;63.75;101226.56;10379643;28;20489;-70
2023/11/16 20:56:35;;;;;;;1999.90;999.90;;;;;;;13.08;64.68;101222.72;10379501;28;20054;-70
2023/11/16 21:01:37;;;;;;;1999.90;999.90;;;;;;;12.44;66.54;101225.63;10378504;28;20113;-70
2023/11/16 21:06:40;;;;;;;1999.90;999.90;;;;;;;13.17;64.58;101222.16;10378538;28;20136;-70
2023/11/16 21:11:42;;;;;;;1999.90;999.90;;;;;;;13.09;64.98;101229.66;10379169;28;20050;-70
2023/11/16 21:16:46;;;;;;;1999.90;999.90;;;;;;;12.92;64.56;101243.00;10377572;28;20413;-70
2023/11/16 21:21:52;;;;;;;1999.90;999.90;;;;;;;12.57;65.25;101246.75;10377042;28;20065;-70
2023/11/16 21:26:54;;;;;;;1999.90;999.90;;;;;;;12.61;65.88;101256.16;10361179;28;20129;-70
2023/11/16 21:31:56;;;;;;;1999.90;999.90;;;;;;;12.55;65.50;101263.56;10376982;28;20049;-70
2023/11/16 21:36:59;;;;;;;1999.90;999.90;;;;;;;13.17;62.83;101263.38;10378113;28;20052;-70
2023/11/16 21:42:03;;;;;;;1999.90;999.90;;;;;;;12.74;64.94;101272.06;10377849;28;20125;-70
2023/11/16 21:47:06;;;;;;;1999.90;999.90;;;;;;;12.56;64.97;101273.97;10377468;28;20390;-70
2023/11/16 21:52:08;;;;;;;1999.90;999.90;;;;;;;12.87;63.99;101292.34;10376537;28;20129;-70
2023/11/16 21:57:11;;;;;;;1999.90;999.90;;;;;;;12.62;64.69;101294.66;10375928;28;20061;-70
2023/11/16 22:02:14;;;;;;;1999.90;999.90;;;;;;;13.10;64.21;101312.84;10376029;28;20129;-70